createdAt,value
2023-01-08T00:02:37.011Z,39.58
2023-01-08T00:05:05.975Z,37.55
2023-01-08T00:07:33.506Z,43.40
2023-01-08T00:10:03.583Z,41.33
2023-01-08T00:12:30.629Z,40.55
2023-01-08T00:14:57.523Z,37.35
2023-01-08T00:17:25.882Z,34.35
2023-01-08T00:19:57.858Z,36.30
2023-01-08T00:22:25.315Z,31.40
2023-01-08T00:24:55.194Z,34.25
2023-01-08T00:27:26.104Z,33.03
2023-01-08T00:29:55.913Z,36.50
2023-01-08T00:32:26.392Z,37.35
2023-01-08T00:34:54.896Z,36.05
2023-01-08T00:37:23.934Z,34.40
2023-01-08T00:39:50.959Z,34.13
2023-01-08T00:42:20.263Z,34.47
2023-01-08T00:44:50.297Z,35.38
2023-01-08T00:47:17.697Z,33.47
2023-01-08T00:50:05.859Z,33.80
2023-01-08T00:52:35.149Z,33.60
2023-01-08T00:55:04.478Z,30.70
2023-01-08T00:57:39.805Z,30.85
2023-01-08T01:00:20.736Z,29.63
2023-01-08T01:02:50.604Z,29.75
2023-01-08T01:05:23.886Z,31.85
2023-01-08T01:07:51.335Z,31.88
2023-01-08T01:10:20.411Z,31.65
2023-01-08T01:12:49.889Z,29.52
2023-01-08T01:15:18.971Z,30.85
2023-01-08T01:17:46.920Z,33.47
2023-01-08T01:20:16.691Z,34.67
2023-01-08T01:22:45.829Z,32.70
2023-01-08T01:25:13.549Z,34.47
2023-01-08T01:27:54.916Z,31.02
2023-01-08T01:30:26.339Z,35.58
2023-01-08T01:32:53.856Z,33.72
2023-01-08T01:35:22.718Z,35.25
2023-01-08T01:37:51.400Z,35.15
2023-01-08T01:40:21.412Z,36.92
2023-01-08T01:42:48.658Z,34.83
2023-01-08T01:45:24.314Z,38.10
2023-01-08T01:48:02.611Z,37.78
2023-01-08T01:50:38.025Z,38.03
2023-01-08T01:53:16.508Z,39.33
2023-01-08T01:55:53.630Z,39.33
2023-01-08T01:58:31.109Z,42.70
2023-01-08T02:01:08.785Z,41.20
2023-01-08T02:03:38.323Z,42.00
2023-01-08T02:06:25.967Z,40.45
2023-01-08T02:09:31.836Z,41.85
2023-01-08T02:12:17.071Z,42.83
2023-01-08T02:15:14.729Z,44.20
2023-01-08T02:17:48.745Z,44.78
2023-01-08T02:20:27.120Z,45.35
2023-01-08T02:22:54.452Z,45.25
2023-01-08T02:26:00.516Z,47.28
2023-01-08T02:28:30.237Z,45.67
2023-01-08T02:30:58.105Z,47.78
2023-01-08T02:33:29.696Z,47.78
2023-01-08T02:36:34.761Z,49.88
2023-01-08T02:39:13.351Z,46.67
2023-01-08T02:41:57.497Z,51.35
2023-01-08T02:44:59.797Z,48.13
2023-01-08T02:47:35.523Z,48.10
2023-01-08T02:50:21.435Z,46.17
2023-01-08T02:53:09.550Z,47.95
2023-01-08T02:55:39.743Z,47.30
2023-01-08T02:58:07.379Z,47.63
2023-01-08T03:00:34.949Z,48.78
2023-01-08T03:03:22.806Z,52.30
2023-01-08T03:05:55.363Z,45.30
2023-01-08T03:08:23.466Z,48.85
2023-01-08T03:10:55.904Z,47.20
2023-01-08T03:13:33.359Z,44.85
2023-01-08T03:16:03.417Z,43.80
2023-01-08T03:18:40.077Z,47.85
2023-01-08T03:21:06.929Z,46.33
2023-01-08T03:23:38.235Z,45.17
2023-01-08T03:26:06.714Z,48.15
2023-01-08T03:28:45.189Z,47.22
2023-01-08T03:31:16.249Z,47.78
2023-01-08T03:33:48.285Z,46.20
2023-01-08T03:36:20.010Z,46.05
2023-01-08T03:39:11.043Z,47.85
2023-01-08T03:41:38.189Z,48.50
2023-01-08T03:44:06.100Z,47.63
2023-01-08T03:46:37.497Z,51.33
2023-01-08T03:49:07.117Z,52.80
2023-01-08T03:52:01.286Z,49.15
2023-01-08T03:54:35.549Z,51.45
2023-01-08T03:57:02.551Z,52.03
2023-01-08T03:59:29.509Z,54.08
2023-01-08T04:01:56.925Z,54.53
2023-01-08T04:04:24.006Z,52.92
2023-01-08T04:06:53.210Z,51.25
2023-01-08T04:09:20.254Z,49.35
2023-01-08T04:11:47.674Z,47.53
2023-01-08T04:14:15.404Z,51.75
2023-01-08T04:16:42.393Z,51.63
2023-01-08T04:19:14.173Z,50.63
2023-01-08T04:21:41.250Z,51.70
2023-01-08T04:24:08.780Z,49.85
2023-01-08T04:26:35.807Z,49.42
2023-01-08T04:29:04.800Z,51.00
2023-01-08T04:31:33.885Z,50.75
2023-01-08T04:34:00.930Z,53.35
2023-01-08T04:36:27.840Z,47.65
2023-01-08T04:38:56.011Z,48.00
2023-01-08T04:41:23.483Z,50.55
2023-01-08T04:43:52.962Z,48.70
2023-01-08T04:46:20.214Z,48.58
2023-01-08T04:48:48.569Z,47.97
2023-01-08T04:51:15.791Z,47.22
2023-01-08T04:53:42.755Z,49.42
2023-01-08T04:56:11.919Z,44.15
2023-01-08T04:58:39.589Z,46.85
2023-01-08T05:01:12.921Z,47.08
2023-01-08T05:03:40.228Z,44.90
2023-01-08T05:06:08.227Z,46.25
2023-01-08T05:08:35.899Z,42.75
2023-01-08T05:11:04.880Z,46.15
2023-01-08T05:13:32.457Z,46.60
2023-01-08T05:16:01.101Z,43.72
2023-01-08T05:18:29.768Z,40.70
2023-01-08T05:21:01.745Z,45.58
2023-01-08T05:23:29.903Z,43.40
2023-01-08T05:26:01.531Z,40.78
2023-01-08T05:28:29.541Z,43.75
2023-01-08T05:30:57.204Z,44.55
2023-01-08T05:33:26.402Z,40.50
2023-01-08T05:35:53.981Z,42.30
2023-01-08T05:38:29.285Z,41.72
2023-01-08T05:40:56.274Z,39.00
2023-01-08T05:43:23.335Z,41.08
2023-01-08T05:45:50.289Z,37.22
2023-01-08T05:48:17.213Z,36.15
2023-01-08T05:50:44.466Z,36.55
2023-01-08T05:53:12.185Z,38.35
2023-01-08T05:55:39.566Z,37.65
2023-01-08T05:58:06.753Z,37.03
2023-01-08T06:00:35.228Z,36.67
2023-01-08T06:03:03.031Z,35.22
2023-01-08T06:05:31.684Z,36.75
2023-01-08T06:07:59.849Z,35.97
2023-01-08T06:10:28.149Z,37.17
2023-01-08T06:12:55.882Z,34.58
2023-01-08T06:15:22.851Z,35.70
2023-01-08T06:17:51.989Z,38.25
2023-01-08T06:20:20.456Z,34.22
2023-01-08T06:22:50.949Z,33.53
2023-01-08T06:25:21.136Z,35.97
2023-01-08T06:27:52.335Z,36.03
2023-01-08T06:30:19.462Z,33.63
2023-01-08T06:32:46.392Z,34.22
2023-01-08T06:35:13.903Z,34.42
2023-01-08T06:37:41.042Z,36.50
2023-01-08T06:40:09.101Z,31.55
2023-01-08T06:42:37.053Z,31.95
2023-01-08T06:45:04.817Z,32.10
2023-01-08T06:47:33.874Z,33.38
2023-01-08T06:50:01.682Z,31.40
2023-01-08T06:52:29.257Z,29.30
2023-01-08T06:54:56.608Z,30.45
2023-01-08T06:57:30.906Z,32.40
2023-01-08T06:59:58.061Z,26.50
2023-01-08T07:02:25.786Z,28.50
2023-01-08T07:04:52.732Z,28.17
2023-01-08T07:07:19.870Z,30.10
2023-01-08T07:09:46.768Z,31.95
2023-01-08T07:12:14.147Z,31.40
2023-01-08T07:14:41.491Z,32.83
2023-01-08T07:17:10.225Z,29.85
2023-01-08T07:19:37.822Z,28.70
2023-01-08T07:22:05.049Z,29.67
2023-01-08T07:24:31.871Z,28.10
2023-01-08T07:26:58.711Z,28.52
2023-01-08T07:29:27.848Z,27.40
2023-01-08T07:31:54.781Z,25.45
2023-01-08T07:34:23.097Z,25.70
2023-01-08T07:36:51.092Z,25.77
2023-01-08T07:39:18.079Z,22.60
2023-01-08T07:41:46.425Z,26.73
2023-01-08T07:44:13.502Z,26.83
2023-01-08T07:46:43.559Z,25.20
2023-01-08T07:49:11.086Z,24.52
2023-01-08T07:51:37.993Z,25.00
2023-01-08T07:54:07.509Z,24.40
2023-01-08T07:56:36.582Z,23.88
2023-01-08T07:59:04.176Z,23.75
2023-01-08T08:01:35.063Z,22.33
2023-01-08T08:04:03.273Z,22.27
2023-01-08T08:06:42.997Z,23.98
2023-01-08T08:09:11.159Z,22.85
2023-01-08T08:11:39.991Z,23.33
2023-01-08T08:14:08.424Z,22.02
2023-01-08T08:16:36.415Z,20.60
2023-01-08T08:19:08.882Z,21.88
2023-01-08T08:21:36.202Z,19.52
2023-01-08T08:24:03.191Z,21.98
2023-01-08T08:26:40.978Z,18.40
2023-01-08T08:29:08.811Z,20.38
2023-01-08T08:31:35.823Z,17.75
2023-01-08T08:34:04.101Z,19.00
2023-01-08T08:36:31.457Z,20.63
2023-01-08T08:38:58.779Z,16.58
2023-01-08T08:41:26.435Z,17.98
2023-01-08T08:43:54.609Z,18.58
2023-01-08T08:46:21.982Z,21.20
2023-01-08T08:48:50.487Z,18.42
2023-01-08T08:51:17.697Z,18.42
2023-01-08T08:53:44.685Z,17.75
2023-01-08T08:56:11.614Z,19.20
2023-01-08T08:58:38.988Z,17.25
2023-01-08T09:01:05.959Z,15.45
2023-01-08T09:03:34.040Z,18.20
2023-01-08T09:06:01.280Z,15.88
2023-01-08T09:08:28.327Z,15.55
2023-01-08T09:10:55.512Z,17.05
2023-01-08T09:13:22.993Z,16.45
2023-01-08T09:15:51.703Z,15.77
2023-01-08T09:18:18.660Z,15.02
2023-01-08T09:20:48.149Z,12.50
2023-01-08T09:23:17.812Z,14.43
2023-01-08T09:25:45.169Z,13.95
2023-01-08T09:28:13.285Z,25.13
2023-01-08T09:30:40.601Z,24.45
2023-01-08T09:33:09.340Z,18.30
2023-01-08T09:35:40.005Z,20.65
2023-01-08T09:38:07.150Z,15.52
2023-01-08T09:40:56.166Z,16.23
2023-01-08T09:43:25.082Z,20.65
2023-01-08T09:45:58.166Z,15.07
2023-01-08T09:48:31.619Z,11.77
2023-01-08T09:51:00.824Z,13.27
2023-01-08T09:53:29.751Z,12.25
2023-01-08T09:56:10.634Z,14.00
2023-01-08T09:58:50.925Z,13.13
2023-01-08T10:01:27.182Z,12.32
2023-01-08T10:04:23.026Z,14.38
2023-01-08T10:07:17.296Z,12.27
2023-01-08T10:09:45.351Z,12.45
2023-01-08T10:12:16.627Z,9.48
2023-01-08T10:14:50.129Z,10.60
2023-01-08T10:17:27.175Z,11.05
2023-01-08T10:19:54.603Z,11.15
2023-01-08T10:22:25.261Z,10.52
2023-01-08T10:24:53.908Z,13.07
2023-01-08T10:27:26.588Z,8.45
2023-01-08T10:29:53.529Z,13.55
2023-01-08T10:32:35.082Z,9.88
2023-01-08T10:35:07.999Z,10.13
2023-01-08T10:37:42.778Z,8.65
2023-01-08T10:40:37.237Z,11.13
2023-01-08T10:43:13.362Z,9.68
2023-01-08T10:45:42.873Z,10.13
2023-01-08T10:48:19.086Z,10.50
2023-01-08T10:50:46.555Z,9.13
2023-01-08T10:53:26.676Z,13.30
2023-01-08T10:56:03.783Z,7.78
2023-01-08T10:58:40.578Z,8.50
2023-01-08T11:01:31.738Z,8.35
2023-01-08T11:04:06.281Z,6.82
2023-01-08T11:06:40.202Z,8.20
2023-01-08T11:09:25.715Z,8.60
2023-01-08T11:11:53.003Z,8.32
2023-01-08T11:14:35.321Z,8.90
2023-01-08T11:17:10.895Z,8.90
2023-01-08T11:19:40.107Z,8.60
2023-01-08T11:22:22.788Z,6.97
2023-01-08T11:24:56.060Z,7.10
2023-01-08T11:27:36.175Z,7.95
2023-01-08T11:30:12.432Z,8.63
2023-01-08T11:33:07.968Z,8.35
2023-01-08T11:36:07.261Z,6.88
2023-01-08T11:38:36.743Z,7.57
2023-01-08T11:41:33.008Z,12.35
2023-01-08T11:44:18.708Z,7.90
2023-01-08T11:47:04.700Z,8.10
2023-01-08T11:50:18.651Z,7.45
2023-01-08T11:53:05.972Z,9.77
2023-01-08T11:56:00.968Z,6.50
2023-01-08T11:58:37.856Z,7.30
2023-01-08T12:01:14.417Z,8.82
2023-01-08T12:03:47.150Z,7.50
2023-01-08T12:06:37.165Z,8.90
2023-01-08T12:09:42.621Z,8.30
2023-01-08T12:12:47.739Z,7.63
2023-01-08T12:15:25.780Z,8.10
2023-01-08T12:18:30.044Z,7.85
2023-01-08T12:21:23.119Z,12.68
2023-01-08T12:24:12.123Z,9.43
2023-01-08T12:27:06.103Z,9.77
2023-01-08T12:29:48.540Z,8.30
2023-01-08T12:32:22.009Z,7.18
2023-01-08T12:35:15.509Z,8.15
2023-01-08T12:37:56.267Z,11.93
2023-01-08T12:40:46.156Z,14.05
2023-01-08T12:43:21.533Z,9.07
2023-01-08T12:45:57.353Z,11.45
2023-01-08T12:48:32.205Z,8.60
2023-01-08T12:51:19.517Z,9.27
2023-01-08T12:53:46.697Z,8.02
2023-01-08T12:56:24.083Z,8.75
2023-01-08T12:59:10.253Z,9.05
2023-01-08T13:01:55.164Z,13.57
2023-01-08T13:04:22.986Z,13.63
2023-01-08T13:07:19.839Z,9.88
2023-01-08T13:09:59.776Z,12.35
2023-01-08T13:12:39.766Z,11.75
2023-01-08T13:15:08.676Z,12.57
2023-01-08T13:17:38.958Z,10.30
2023-01-08T13:20:07.529Z,11.02
2023-01-08T13:22:39.639Z,9.20
2023-01-08T13:25:32.622Z,10.23
2023-01-08T13:28:00.186Z,11.27
2023-01-08T13:30:38.971Z,12.48
2023-01-08T13:33:41.350Z,12.23
2023-01-08T13:36:21.178Z,10.75
2023-01-08T13:39:11.561Z,10.85
2023-01-08T13:42:00.608Z,13.38
2023-01-08T13:44:41.375Z,8.93
2023-01-08T13:47:32.229Z,9.32
2023-01-08T13:50:15.096Z,8.63
2023-01-08T13:52:50.164Z,10.45
2023-01-08T13:55:18.817Z,11.75
2023-01-08T13:57:55.993Z,9.40
2023-01-08T14:00:31.368Z,12.00
2023-01-08T14:02:59.454Z,11.65
2023-01-08T14:05:34.964Z,14.10
2023-01-08T14:08:02.636Z,10.93
2023-01-08T14:10:31.955Z,11.68
2023-01-08T14:13:20.204Z,13.73
2023-01-08T14:15:48.034Z,11.45
2023-01-08T14:18:19.515Z,9.65
2023-01-08T14:20:51.035Z,14.90
2023-01-08T14:23:26.811Z,13.77
2023-01-08T14:26:02.838Z,12.00
2023-01-08T14:28:30.129Z,11.93
2023-01-08T14:30:58.427Z,9.88
2023-01-08T14:33:34.900Z,9.18
2023-01-08T14:36:09.019Z,10.70
2023-01-08T14:38:35.828Z,11.80
2023-01-08T14:41:12.061Z,12.23
2023-01-08T14:43:47.383Z,12.52
2023-01-08T14:46:26.847Z,12.30
2023-01-08T14:48:55.666Z,10.38
2023-01-08T14:51:30.906Z,12.98
2023-01-08T14:54:03.287Z,10.85
2023-01-08T14:56:36.022Z,12.88
2023-01-08T14:59:11.982Z,14.73
2023-01-08T15:01:43.129Z,13.52
2023-01-08T15:04:17.771Z,13.52
2023-01-08T15:06:46.704Z,12.05
2023-01-08T15:09:30.376Z,14.48
2023-01-08T15:12:22.475Z,15.75
2023-01-08T15:14:49.641Z,17.38
2023-01-08T15:17:22.727Z,16.27
2023-01-08T15:19:56.194Z,15.77
2023-01-08T15:22:26.751Z,17.92
2023-01-08T15:25:03.918Z,15.02
2023-01-08T15:27:37.375Z,21.05
2023-01-08T15:30:06.967Z,18.10
2023-01-08T15:32:37.490Z,18.63
2023-01-08T15:35:19.537Z,17.52
2023-01-08T15:37:46.577Z,14.82
2023-01-08T15:40:15.982Z,14.30
2023-01-08T15:43:03.622Z,12.55
2023-01-08T15:45:36.972Z,14.35
2023-01-08T15:48:06.887Z,14.18
2023-01-08T15:50:40.759Z,13.18
2023-01-08T15:53:30.965Z,14.20
2023-01-08T15:55:58.334Z,15.90
2023-01-08T15:58:26.923Z,14.13
2023-01-08T16:00:56.062Z,16.25
2023-01-08T16:03:26.582Z,18.83
2023-01-08T16:05:59.457Z,17.70
2023-01-08T16:08:26.560Z,15.68
2023-01-08T16:10:54.748Z,16.90
2023-01-08T16:13:23.976Z,16.05
2023-01-08T16:15:50.868Z,19.13
2023-01-08T16:18:20.379Z,19.80
2023-01-08T16:20:47.441Z,20.38
2023-01-08T16:23:16.755Z,18.83
2023-01-08T16:25:43.718Z,18.10
2023-01-08T16:28:15.226Z,15.70
2023-01-08T16:30:45.096Z,17.23
2023-01-08T16:33:15.929Z,19.02
2023-01-08T16:35:55.349Z,18.98
2023-01-08T16:38:27.536Z,21.35
2023-01-08T16:40:57.016Z,18.45
2023-01-08T16:43:25.666Z,19.08
2023-01-08T16:45:53.312Z,18.80
2023-01-08T16:48:21.510Z,20.88
2023-01-08T16:50:51.872Z,20.67
2023-01-08T16:53:19.220Z,18.35
2023-01-08T16:55:47.449Z,18.55
2023-01-08T16:58:14.474Z,15.07
2023-01-08T17:00:43.139Z,20.10
2023-01-08T17:03:10.105Z,17.88
2023-01-08T17:05:37.901Z,18.90
2023-01-08T17:08:06.066Z,20.45
2023-01-08T17:10:33.113Z,18.40
2023-01-08T17:13:00.210Z,15.80
2023-01-08T17:15:27.252Z,17.73
2023-01-08T17:17:59.141Z,16.70
2023-01-08T17:20:26.131Z,17.00
2023-01-08T17:22:54.195Z,18.77
2023-01-08T17:25:21.390Z,18.48
2023-01-08T17:27:52.690Z,17.92
2023-01-08T17:30:21.039Z,14.75
2023-01-08T17:32:50.554Z,18.70
2023-01-08T17:35:17.485Z,15.35
2023-01-08T17:37:46.617Z,16.90
2023-01-08T17:40:14.494Z,17.00
2023-01-08T17:42:44.456Z,19.42
2023-01-08T17:45:12.063Z,14.55
2023-01-08T17:47:39.403Z,17.92
2023-01-08T17:50:06.521Z,15.38
2023-01-08T17:52:44.717Z,15.70
2023-01-08T17:55:13.474Z,15.82
2023-01-08T17:57:44.304Z,17.50
2023-01-08T18:00:15.481Z,16.92
2023-01-08T18:02:43.410Z,16.73
2023-01-08T18:05:11.512Z,16.23
2023-01-08T18:07:38.817Z,15.20
2023-01-08T18:10:08.742Z,12.88
2023-01-08T18:12:35.550Z,14.57
2023-01-08T18:15:02.829Z,19.63
2023-01-08T18:17:32.945Z,15.23
2023-01-08T18:20:00.419Z,14.20
2023-01-08T18:22:35.258Z,16.13
2023-01-08T18:25:02.229Z,16.50
2023-01-08T18:27:29.509Z,16.58
2023-01-08T18:29:56.687Z,15.00
2023-01-08T18:32:29.800Z,15.10
2023-01-08T18:34:56.712Z,16.50
2023-01-08T18:37:24.070Z,19.40
2023-01-08T18:39:51.029Z,21.10
2023-01-08T18:42:27.231Z,19.75
2023-01-08T18:44:56.013Z,19.20
2023-01-08T18:47:24.553Z,16.08
2023-01-08T18:49:59.957Z,18.10
2023-01-08T18:52:27.087Z,17.10
2023-01-08T18:54:53.869Z,22.88
2023-01-08T18:57:20.790Z,21.25
2023-01-08T18:59:50.085Z,17.83
2023-01-08T19:02:22.916Z,18.48
2023-01-08T19:04:51.458Z,16.67
2023-01-08T19:07:18.940Z,18.92
2023-01-08T19:09:46.009Z,21.08
2023-01-08T19:12:18.744Z,18.50
2023-01-08T19:14:47.095Z,17.73
2023-01-08T19:17:14.043Z,19.60
2023-01-08T19:19:41.362Z,15.60
2023-01-08T19:22:08.695Z,17.45
2023-01-08T19:24:39.048Z,18.25
2023-01-08T19:27:05.830Z,19.63
2023-01-08T19:29:37.593Z,18.42
2023-01-08T19:32:04.718Z,19.02
2023-01-08T19:34:31.894Z,23.42
2023-01-08T19:37:01.206Z,21.48
2023-01-08T19:39:31.618Z,18.75
2023-01-08T19:42:17.946Z,18.00
2023-01-08T19:44:44.857Z,17.48
2023-01-08T19:47:12.269Z,16.60
2023-01-08T19:49:40.182Z,15.23
2023-01-08T19:52:07.015Z,15.20
2023-01-08T19:54:34.122Z,17.35
2023-01-08T19:57:00.937Z,17.50
2023-01-08T19:59:28.171Z,20.35
2023-01-08T20:01:56.485Z,21.05
2023-01-08T20:04:23.827Z,18.20
2023-01-08T20:06:52.375Z,17.17
2023-01-08T20:09:19.576Z,19.10
2023-01-08T20:11:46.518Z,17.20
2023-01-08T20:14:13.336Z,17.27
2023-01-08T20:16:42.507Z,16.95
2023-01-08T20:19:10.238Z,17.80
2023-01-08T20:21:50.488Z,15.55
2023-01-08T20:24:17.369Z,15.63
2023-01-08T20:26:45.522Z,16.40
2023-01-08T20:29:14.413Z,15.43
2023-01-08T20:31:42.615Z,17.17
2023-01-08T20:34:15.571Z,16.73
2023-01-08T20:36:44.552Z,15.52
2023-01-08T20:39:17.361Z,16.75
2023-01-08T20:41:50.418Z,19.58
2023-01-08T20:44:31.822Z,18.70
2023-01-08T20:47:01.525Z,23.30
2023-01-08T20:49:34.735Z,20.27
2023-01-08T20:52:01.773Z,18.60
2023-01-08T20:54:32.422Z,17.90
2023-01-08T20:57:01.168Z,17.30
2023-01-08T20:59:28.632Z,17.52
2023-01-08T21:01:55.549Z,19.77
2023-01-08T21:04:26.298Z,26.02
2023-01-08T21:06:53.108Z,20.85
2023-01-08T21:09:20.508Z,19.63
2023-01-08T21:11:50.007Z,22.58
2023-01-08T21:14:17.207Z,22.73
2023-01-08T21:16:44.353Z,28.13
2023-01-08T21:19:11.181Z,23.90
2023-01-08T21:21:40.125Z,28.38
2023-01-08T21:24:09.099Z,28.73
2023-01-08T21:26:37.713Z,29.05
2023-01-08T21:29:09.082Z,26.63
2023-01-08T21:31:37.865Z,25.08
2023-01-08T21:34:06.232Z,25.00
2023-01-08T21:36:33.226Z,21.25
2023-01-08T21:39:01.504Z,24.45
2023-01-08T21:41:48.607Z,20.50
2023-01-08T21:44:39.101Z,22.13
2023-01-08T21:47:09.281Z,26.27
2023-01-08T21:49:36.248Z,23.58
2023-01-08T21:52:22.575Z,24.38
2023-01-08T21:54:49.694Z,22.15
2023-01-08T21:57:17.369Z,27.33
2023-01-08T21:59:44.617Z,24.55
2023-01-08T22:02:16.600Z,23.55
2023-01-08T22:04:44.512Z,24.35
2023-01-08T22:07:11.589Z,22.20
2023-01-08T22:09:38.452Z,23.83
2023-01-08T22:12:07.244Z,21.27
2023-01-08T22:14:34.645Z,25.98
2023-01-08T22:17:04.179Z,26.95
2023-01-08T22:19:31.146Z,25.52
2023-01-08T22:21:57.998Z,28.80
2023-01-08T22:24:24.764Z,24.33
2023-01-08T22:26:52.155Z,23.27
2023-01-08T22:29:18.907Z,23.10
2023-01-08T22:31:45.787Z,22.95
2023-01-08T22:34:17.521Z,26.38
2023-01-08T22:36:52.017Z,26.20
2023-01-08T22:39:19.035Z,26.38
2023-01-08T22:41:45.901Z,24.80
2023-01-08T22:44:13.277Z,23.08
2023-01-08T22:46:40.744Z,22.98
2023-01-08T22:49:08.212Z,25.25
2023-01-08T22:51:34.971Z,28.52
2023-01-08T22:54:01.795Z,25.73
2023-01-08T22:56:28.588Z,24.27
2023-01-08T22:58:57.509Z,25.35
2023-01-08T23:01:27.464Z,22.85
2023-01-08T23:03:58.520Z,23.02
2023-01-08T23:06:27.685Z,22.45
2023-01-08T23:08:55.753Z,28.65
2023-01-08T23:11:23.463Z,24.67
2023-01-08T23:13:51.281Z,22.10
2023-01-08T23:16:20.679Z,27.25
2023-01-08T23:18:48.898Z,21.48
2023-01-08T23:21:19.041Z,22.13
2023-01-08T23:23:47.216Z,20.02
2023-01-08T23:26:20.762Z,22.65
2023-01-08T23:28:48.758Z,19.95
2023-01-08T23:31:21.019Z,24.38
2023-01-08T23:33:48.257Z,24.20
2023-01-08T23:36:18.836Z,22.33
2023-01-08T23:38:46.463Z,19.52
2023-01-08T23:41:13.515Z,22.65
2023-01-08T23:43:40.872Z,21.58
2023-01-08T23:46:07.792Z,26.63
2023-01-08T23:48:34.841Z,22.85
2023-01-08T23:51:02.274Z,23.45
2023-01-08T23:53:30.331Z,23.27
2023-01-08T23:55:57.421Z,26.75
2023-01-08T23:58:24.986Z,33.85
